Time;durP1;ratioP1;P1;durP2;ratioP2;P2;SDS_P1;SDS_P2;PMS_P1;PMS_P2;Temp;Humidity;BMP_temperature;BMP_pressure;BME280_temperature;BME280_humidity;BME280_pressure;Samples;Min_cycle;Max_cycle;Signal;HPM_P1;HPM_P2
2022/11/18 00:00:54;;;;;;;9.50;3.80;;;8.60;99.90;;;;;;4974865;28;20061;-80
2022/11/18 00:03:20;;;;;;;11.88;4.50;;;8.50;99.90;;;;;;4993710;28;20034;-80
2022/11/18 00:05:56;;;;;;;13.90;5.32;;;8.50;99.90;;;;;;4992515;28;20027;-80
2022/11/18 00:08:24;;;;;;;10.82;4.38;;;8.50;99.90;;;;;;4993315;28;20042;-80
2022/11/18 00:10:50;;;;;;;10.88;4.60;;;8.50;99.90;;;;;;4992349;28;20061;-80
2022/11/18 00:16:04;;;;;;;12.95;5.68;;;8.50;99.90;;;;;;4992625;28;20468;-81
2022/11/18 00:18:31;;;;;;;9.77;4.60;;;8.50;99.90;;;;;;4976056;28;20038;-81
2022/11/18 00:21:04;;;;;;;13.45;5.60;;;8.50;99.90;;;;;;4974920;28;20049;-81
2022/11/18 00:23:30;;;;;;;7.40;4.88;;;8.50;99.90;;;;;;4993096;28;20041;-80
2022/11/18 00:26:11;;;;;;;12.13;5.03;;;8.50;99.90;;;;;;4975333;28;20027;-81
2022/11/18 00:28:38;;;;;;;10.52;5.22;;;8.40;99.90;;;;;;4992778;28;20049;-80
2022/11/18 00:31:07;;;;;;;11.50;5.20;;;8.50;99.90;;;;;;4975526;28;20051;-80
2022/11/18 00:33:35;;;;;;;13.05;5.80;;;8.40;99.90;;;;;;4973407;28;20031;-81
2022/11/18 00:36:03;;;;;;;16.95;6.35;;;8.40;99.90;;;;;;4973103;28;20050;-80
2022/11/18 00:38:30;;;;;;;11.85;5.28;;;8.40;99.90;;;;;;4973441;28;20074;-81
2022/11/18 00:41:05;;;;;;;15.25;5.50;;;8.40;99.90;;;;;;4954890;28;20043;-81
2022/11/18 00:43:32;;;;;;;14.27;7.15;;;8.40;99.90;;;;;;4973114;28;20031;-80
2022/11/18 00:45:58;;;;;;;11.77;5.60;;;8.40;99.90;;;;;;4972973;28;20030;-80
2022/11/18 00:48:25;;;;;;;9.88;5.30;;;8.40;99.90;;;;;;4973338;28;20042;-80
2022/11/18 00:50:53;;;;;;;12.77;5.65;;;8.40;99.90;;;;;;4955469;28;20034;-81
2022/11/18 00:53:21;;;;;;;14.30;6.78;;;8.40;99.90;;;;;;4973086;28;20469;-80
2022/11/18 00:55:47;;;;;;;16.90;6.45;;;8.40;99.90;;;;;;4972175;28;20035;-80
2022/11/18 00:58:14;;;;;;;16.38;7.45;;;8.40;99.90;;;;;;4955920;28;20054;-80
2022/11/18 01:00:42;;;;;;;12.00;6.38;;;8.40;99.90;;;;;;4955493;28;20393;-80
2022/11/18 01:03:09;;;;;;;14.73;6.63;;;8.30;99.90;;;;;;4973242;28;20042;-80
2022/11/18 01:05:36;;;;;;;13.07;6.00;;;8.30;99.90;;;;;;4973525;28;20372;-80
2022/11/18 01:08:04;;;;;;;12.70;6.20;;;8.20;99.90;;;;;;4972329;28;20050;-80
2022/11/18 01:10:30;;;;;;;13.00;5.75;;;8.20;99.90;;;;;;4972875;28;20196;-80
2022/11/18 01:15:43;;;;;;;11.38;5.55;;;8.20;99.90;;;;;;4972825;28;20039;-80
2022/11/18 01:18:09;;;;;;;11.30;6.90;;;8.20;99.90;;;;;;4955884;28;20034;-81
2022/11/18 01:20:36;;;;;;;10.95;6.28;;;8.30;99.90;;;;;;4973106;28;20042;-80
2022/11/18 01:23:03;;;;;;;11.15;7.32;;;8.30;99.90;;;;;;4972733;28;20041;-81
2022/11/18 01:25:29;;;;;;;13.00;6.30;;;8.30;99.90;;;;;;4973110;28;20027;-81
2022/11/18 01:27:56;;;;;;;11.52;6.95;;;8.30;99.90;;;;;;4974555;28;20066;-80
2022/11/18 01:30:22;;;;;;;10.98;6.82;;;8.40;99.90;;;;;;4977257;28;20507;-81
2022/11/18 01:32:48;;;;;;;10.10;6.15;;;8.30;99.90;;;;;;4977492;28;20484;-81
2022/11/18 01:35:18;;;;;;;12.30;6.07;;;8.40;99.90;;;;;;4960561;28;20042;-80
2022/11/18 01:37:44;;;;;;;13.98;6.10;;;8.30;99.90;;;;;;4977313;28;20038;-80
2022/11/18 01:40:10;;;;;;;18.75;6.00;;;8.30;99.90;;;;;;4963067;28;20271;-80
2022/11/18 01:42:37;;;;;;;12.43;5.85;;;8.30;99.90;;;;;;4986259;28;20034;-80
2022/11/18 01:45:14;;;;;;;13.98;6.18;;;8.30;99.90;;;;;;4977476;28;20023;-80
2022/11/18 01:47:50;;;;;;;13.30;6.15;;;8.30;99.90;;;;;;4960644;28;20030;-80
2022/11/18 01:50:18;;;;;;;15.70;7.40;;;8.30;99.90;;;;;;4962680;28;20055;-81
2022/11/18 01:52:45;;;;;;;11.82;6.10;;;8.30;99.90;;;;;;4961423;28;20480;-80
2022/11/18 01:55:15;;;;;;;15.57;5.57;;;8.30;99.90;;;;;;4967083;28;20023;-81
2022/11/18 01:57:43;;;;;;;18.30;6.45;;;8.30;99.90;;;;;;5000416;28;20043;-81
2022/11/18 02:00:10;;;;;;;18.50;6.20;;;8.40;99.90;;;;;;4997359;28;20043;-80
2022/11/18 02:02:37;;;;;;;14.10;6.53;;;8.30;99.90;;;;;;4978913;28;20030;-80
2022/11/18 02:05:05;;;;;;;9.07;4.80;;;8.30;99.90;;;;;;4958741;28;20031;-81
2022/11/18 02:07:38;;;;;;;12.38;5.70;;;8.30;99.90;;;;;;4976606;28;20047;-80
2022/11/18 02:10:06;;;;;;;13.20;6.75;;;8.30;99.90;;;;;;4975262;28;20038;-81
2022/11/18 02:12:34;;;;;;;13.13;6.32;;;8.30;99.90;;;;;;4976294;28;20034;-80
2022/11/18 02:15:01;;;;;;;14.07;6.45;;;8.30;99.90;;;;;;4959477;28;20031;-80
2022/11/18 02:18:06;;;;;;;13.32;5.53;;;8.30;99.90;;;;;;4960042;28;20038;-80
2022/11/18 02:20:38;;;;;;;14.00;5.88;;;8.30;99.90;;;;;;4942884;28;20047;-81
2022/11/18 02:23:29;;;;;;;14.45;6.25;;;8.40;99.90;;;;;;4975782;28;20027;-81
2022/11/18 02:26:29;;;;;;;11.52;5.43;;;8.30;99.90;;;;;;4958236;28;20385;-81
2022/11/18 02:29:07;;;;;;;16.75;5.68;;;8.30;99.90;;;;;;4975176;28;20031;-81
2022/11/18 02:31:51;;;;;;;15.93;5.90;;;8.30;99.90;;;;;;4976901;28;20043;-81
2022/11/18 02:34:24;;;;;;;13.27;6.03;;;8.40;99.90;;;;;;4959800;28;20365;-81
2022/11/18 02:36:58;;;;;;;10.45;5.32;;;8.40;99.90;;;;;;4975057;28;20039;-80
2022/11/18 02:39:36;;;;;;;14.15;5.80;;;8.40;99.90;;;;;;4975097;28;20106;-81
2022/11/18 02:42:08;;;;;;;11.77;5.80;;;8.40;99.90;;;;;;4957239;28;20043;-81
2022/11/18 02:44:38;;;;;;;17.67;6.03;;;8.40;99.90;;;;;;4975692;28;20035;-81
2022/11/18 02:47:07;;;;;;;14.25;6.18;;;8.40;99.90;;;;;;4974468;28;20046;-81
2022/11/18 02:49:42;;;;;;;16.35;6.25;;;8.40;99.90;;;;;;4957582;28;20042;-81
2022/11/18 02:52:10;;;;;;;18.35;5.82;;;8.40;99.90;;;;;;4957637;28;20476;-81
2022/11/18 02:54:40;;;;;;;17.50;6.82;;;8.40;99.90;;;;;;4975544;28;20480;-81
2022/11/18 02:57:07;;;;;;;10.00;5.38;;;8.40;99.90;;;;;;4974525;28;20023;-81
2022/11/18 02:59:34;;;;;;;11.68;6.00;;;8.40;99.90;;;;;;4975519;28;20054;-81
2022/11/18 03:02:00;;;;;;;11.18;5.80;;;8.40;99.90;;;;;;4957362;28;20037;-81
2022/11/18 03:04:26;;;;;;;14.57;6.43;;;8.40;99.90;;;;;;4975166;28;20023;-81
2022/11/18 03:07:10;;;;;;;14.85;6.18;;;8.40;99.90;;;;;;4957245;28;20038;-81
2022/11/18 03:09:40;;;;;;;10.43;5.53;;;8.40;99.90;;;;;;4975357;28;20042;-81
2022/11/18 03:12:17;;;;;;;13.75;5.95;;;8.50;99.90;;;;;;4974183;28;20285;-81
2022/11/18 03:15:17;;;;;;;15.55;6.43;;;8.50;99.90;;;;;;4975082;28;20037;-81
2022/11/18 03:18:02;;;;;;;17.60;6.25;;;8.50;99.90;;;;;;4974935;28;20039;-81
2022/11/18 03:20:37;;;;;;;17.17;6.82;;;8.50;99.90;;;;;;4975118;28;20058;-81
2022/11/18 03:23:09;;;;;;;12.93;6.93;;;8.50;99.90;;;;;;4974269;28;20488;-80
2022/11/18 03:25:42;;;;;;;15.48;7.28;;;8.60;99.90;;;;;;4975123;28;20038;-80
2022/11/18 03:28:21;;;;;;;15.98;8.05;;;8.60;99.90;;;;;;4973916;28;20031;-81
2022/11/18 03:31:10;;;;;;;19.45;7.60;;;8.60;99.90;;;;;;4974667;28;20043;-80
2022/11/18 03:33:46;;;;;;;27.55;9.02;;;8.60;99.90;;;;;;4974565;28;20042;-80
2022/11/18 03:36:15;;;;;;;30.83;10.85;;;8.60;99.90;;;;;;4956813;28;20484;-80
2022/11/18 03:38:50;;;;;;;17.13;8.15;;;8.70;99.90;;;;;;4957601;28;20035;-80
2022/11/18 03:41:17;;;;;;;16.42;8.30;;;8.60;99.90;;;;;;4958254;28;20457;-80
2022/11/18 03:43:52;;;;;;;18.02;8.18;;;8.60;99.90;;;;;;4975378;28;20026;-80
2022/11/18 03:46:42;;;;;;;21.55;8.75;;;8.70;99.90;;;;;;4975628;28;20035;-80
2022/11/18 03:49:13;;;;;;;18.73;8.65;;;8.70;99.90;;;;;;4974251;28;20045;-81
2022/11/18 03:51:41;;;;;;;;;;;8.70;99.90;;;;;;4957290;28;20030;-81
2022/11/18 03:54:14;;;;;;;19.10;8.10;;;8.70;99.90;;;;;;4974055;28;20371;-81
2022/11/18 03:56:46;;;;;;;19.10;9.18;;;8.70;99.90;;;;;;4941273;28;20053;-81
2022/11/18 03:59:18;;;;;;;21.10;9.32;;;8.70;99.90;;;;;;4956070;28;20404;-81
2022/11/18 04:01:52;;;;;;;22.52;9.77;;;8.70;99.90;;;;;;4974232;28;20420;-80
2022/11/18 04:04:19;;;;;;;19.77;9.63;;;8.70;99.90;;;;;;4956696;28;20054;-81
2022/11/18 04:06:58;;;;;;;21.08;8.95;;;8.70;99.90;;;;;;4974322;28;20030;-81
2022/11/18 04:09:31;;;;;;;25.38;9.40;;;8.70;99.90;;;;;;4956978;28;20046;-81
2022/11/18 04:12:03;;;;;;;17.33;8.73;;;8.70;99.90;;;;;;4975720;28;20039;-81
2022/11/18 04:14:35;;;;;;;24.27;10.05;;;8.80;99.90;;;;;;4977128;28;20046;-80
2022/11/18 04:17:08;;;;;;;24.95;9.75;;;8.80;99.90;;;;;;4976071;28;20038;-80
2022/11/18 04:19:35;;;;;;;24.77;9.68;;;8.80;99.90;;;;;;4941642;28;20422;-80
2022/11/18 04:22:01;;;;;;;26.20;9.70;;;8.80;99.90;;;;;;4957539;28;20034;-80
2022/11/18 04:24:27;;;;;;;25.23;9.82;;;8.80;99.90;;;;;;4975299;28;20445;-81
2022/11/18 04:26:54;;;;;;;26.55;10.80;;;8.80;99.90;;;;;;4973801;28;20038;-81
2022/11/18 04:29:20;;;;;;;23.98;10.80;;;8.80;99.90;;;;;;4956873;28;20065;-80
2022/11/18 04:31:46;;;;;;;22.85;10.98;;;8.80;99.90;;;;;;4974714;28;20050;-81
2022/11/18 04:34:12;;;;;;;25.60;11.00;;;8.80;99.90;;;;;;4973617;28;20034;-80
2022/11/18 04:36:39;;;;;;;29.33;11.20;;;8.90;99.90;;;;;;4974684;28;20026;-81
2022/11/18 04:39:05;;;;;;;40.35;12.32;;;8.90;99.90;;;;;;4974063;28;20038;-81
2022/11/18 04:44:16;;;;;;;40.03;17.20;;;8.90;99.90;;;;;;4973594;28;20035;-80
2022/11/18 04:46:43;;;;;;;39.83;18.63;;;8.90;99.90;;;;;;4956661;28;20050;-81
2022/11/18 04:49:12;;;;;;;45.60;17.50;;;8.90;99.90;;;;;;4990046;28;20788;-81
2022/11/18 04:51:39;;;;;;;31.20;15.38;;;9.00;99.90;;;;;;4993752;28;20057;-80
2022/11/18 04:54:05;;;;;;;34.10;15.43;;;9.00;99.90;;;;;;4993817;28;20037;-80
2022/11/18 04:56:31;;;;;;;33.63;16.38;;;9.00;99.90;;;;;;4993665;28;20030;-80
2022/11/18 04:58:59;;;;;;;30.50;14.27;;;9.00;99.90;;;;;;4992738;28;20038;-82
2022/11/18 05:01:27;;;;;;;35.17;14.00;;;9.00;99.90;;;;;;4975994;28;20061;-81
2022/11/18 05:03:54;;;;;;;32.72;13.93;;;9.00;99.90;;;;;;4992912;28;20460;-82
2022/11/18 05:06:20;;;;;;;30.90;14.13;;;9.00;99.90;;;;;;4975610;28;20049;-81
2022/11/18 05:08:47;;;;;;;31.42;14.52;;;8.90;99.90;;;;;;4992788;28;20022;-81
2022/11/18 05:13:58;;;;;;;19.20;9.68;;;8.90;99.90;;;;;;4974755;28;20042;-79
2022/11/18 05:16:24;;;;;;;16.38;8.18;;;8.90;99.90;;;;;;4993827;28;20037;-81
2022/11/18 05:18:50;;;;;;;20.38;7.55;;;8.60;99.90;;;;;;4977151;28;20042;-78
2022/11/18 05:21:16;;;;;;;12.07;6.25;;;8.70;99.90;;;;;;4994304;28;20034;-78
2022/11/18 05:23:42;;;;;;;12.15;4.80;;;8.60;99.90;;;;;;4962104;28;20046;-77
2022/11/18 05:26:10;;;;;;;9.88;3.72;;;8.60;99.90;;;;;;4998751;28;20026;-78
2022/11/18 05:28:37;;;;;;;7.22;3.08;;;8.50;99.90;;;;;;4998402;28;20030;-78
2022/11/18 05:31:12;;;;;;;6.45;2.28;;;8.40;99.90;;;;;;5010156;28;20053;-78
2022/11/18 05:33:40;;;;;;;5.63;1.92;;;8.40;99.90;;;;;;4996095;28;20049;-78
2022/11/18 05:36:11;;;;;;;4.32;1.75;;;8.30;99.90;;;;;;5013446;28;20359;-80
2022/11/18 05:38:38;;;;;;;6.38;2.03;;;8.20;99.90;;;;;;5013479;28;20057;-79
2022/11/18 05:41:05;;;;;;;9.35;2.03;;;8.20;99.90;;;;;;5011077;28;20026;-78
2022/11/18 05:43:31;;;;;;;5.85;2.45;;;8.30;99.90;;;;;;5012464;28;20041;-78
2022/11/18 05:45:58;;;;;;;4.82;2.63;;;8.20;99.90;;;;;;4994317;28;20482;-84
2022/11/18 05:48:24;;;;;;;3.42;1.45;;;8.20;99.90;;;;;;5012156;28;20101;-77
2022/11/18 05:50:52;;;;;;;3.83;1.63;;;8.20;99.90;;;;;;5011857;28;20436;-78
2022/11/18 05:53:21;;;;;;;6.20;1.63;;;8.20;99.90;;;;;;5011209;28;20041;-78
2022/11/18 05:55:57;;;;;;;3.40;1.27;;;8.10;99.90;;;;;;5011659;28;20144;-78
2022/11/18 05:58:23;;;;;;;3.80;1.30;;;8.10;99.90;;;;;;5011779;28;20045;-79
2022/11/18 06:00:53;;;;;;;2.60;1.20;;;8.10;99.90;;;;;;5011548;28;20033;-79
2022/11/18 06:03:26;;;;;;;3.07;1.50;;;8.10;99.90;;;;;;5011565;28;20045;-79
2022/11/18 06:05:55;;;;;;;2.50;1.40;;;8.10;99.90;;;;;;5011706;28;20325;-78
2022/11/18 06:08:25;;;;;;;6.45;2.70;;;8.10;99.90;;;;;;4977125;28;20042;-79
2022/11/18 06:10:52;;;;;;;4.18;1.50;;;8.10;99.90;;;;;;5011727;28;20067;-81
2022/11/18 06:13:24;;;;;;;3.15;1.50;;;8.00;99.90;;;;;;5012517;28;20379;-82
2022/11/18 06:15:50;;;;;;;2.33;1.13;;;8.00;99.90;;;;;;4981807;28;20054;-82
2022/11/18 06:18:22;;;;;;;2.67;1.20;;;8.00;99.90;;;;;;4997704;28;20034;-84
2022/11/18 06:20:51;;;;;;;4.63;1.40;;;8.00;99.90;;;;;;4982018;28;20399;-83
2022/11/18 06:23:17;;;;;;;7.15;1.85;;;8.00;99.90;;;;;;5015649;28;20030;-83
2022/11/18 06:25:44;;;;;;;2.70;1.40;;;8.00;99.90;;;;;;5015742;28;20026;-84
2022/11/18 06:28:12;;;;;;;4.25;1.42;;;7.90;99.90;;;;;;4997653;28;20048;-84
2022/11/18 06:30:39;;;;;;;3.53;1.63;;;8.00;99.90;;;;;;4978852;28;20049;-84
2022/11/18 06:33:05;;;;;;;4.50;1.50;;;7.90;99.90;;;;;;5014593;28;20380;-84
2022/11/18 06:35:31;;;;;;;5.50;1.52;;;7.90;99.90;;;;;;4997477;28;20030;-84
2022/11/18 06:37:57;;;;;;;4.72;2.58;;;7.90;99.90;;;;;;5014890;28;20022;-85
2022/11/18 06:40:23;;;;;;;3.70;1.00;;;7.90;99.90;;;;;;5017212;28;20042;-84
2022/11/18 06:45:34;;;;;;;3.45;0.90;;;7.90;99.90;;;;;;5017242;28;20049;-81
2022/11/18 06:48:00;;;;;;;5.60;1.67;;;7.90;99.90;;;;;;4996101;28;20049;-80
2022/11/18 06:50:27;;;;;;;3.70;1.60;;;7.90;99.90;;;;;;5013373;28;20057;-79
2022/11/18 06:52:53;;;;;;;3.63;1.85;;;7.90;99.90;;;;;;4999186;28;20042;-78
2022/11/18 06:55:19;;;;;;;5.88;2.03;;;7.90;99.90;;;;;;4998942;28;20026;-79
2022/11/18 06:57:46;;;;;;;6.93;3.97;;;7.90;99.90;;;;;;4995556;28;20041;-78
2022/11/18 07:00:12;;;;;;;6.65;2.78;;;7.90;99.90;;;;;;5000925;28;20045;-79
2022/11/18 07:02:39;;;;;;;3.78;2.05;;;7.90;99.90;;;;;;5014812;28;20034;-79
2022/11/18 07:05:05;;;;;;;5.72;2.15;;;7.90;99.90;;;;;;5013174;28;20033;-78
2022/11/18 07:07:34;;;;;;;3.30;1.33;;;7.90;99.90;;;;;;5014328;28;20030;-78
2022/11/18 07:10:00;;;;;;;3.40;1.08;;;7.90;99.90;;;;;;5013884;28;20399;-84
2022/11/18 07:12:27;;;;;;;2.40;1.05;;;7.90;99.90;;;;;;5013280;28;20045;-79
2022/11/18 07:14:53;;;;;;;2.95;1.00;;;7.90;99.90;;;;;;5014068;28;20041;-78
2022/11/18 07:17:19;;;;;;;3.40;1.48;;;7.80;99.90;;;;;;4996404;28;20256;-77
2022/11/18 07:19:45;;;;;;;2.03;0.85;;;7.80;99.90;;;;;;5014550;28;20041;-78
2022/11/18 07:22:11;;;;;;;3.55;1.23;;;7.80;99.90;;;;;;5014092;28;20036;-78
2022/11/18 07:24:37;;;;;;;3.72;1.20;;;7.80;99.90;;;;;;4996690;28;20034;-78
2022/11/18 07:27:03;;;;;;;3.65;1.00;;;7.80;99.90;;;;;;5015149;28;20026;-77
2022/11/18 07:29:30;;;;;;;4.45;1.50;;;7.90;99.90;;;;;;4997506;28;20061;-78
2022/11/18 07:31:56;;;;;;;8.35;5.20;;;7.80;99.90;;;;;;5015396;28;20045;-78
2022/11/18 07:34:23;;;;;;;10.10;5.10;;;7.80;99.90;;;;;;5013582;28;20033;-78
2022/11/18 07:36:49;;;;;;;7.78;4.63;;;7.90;99.90;;;;;;4996081;28;20037;-78
2022/11/18 07:39:15;;;;;;;8.95;5.85;;;7.80;99.90;;;;;;5013683;28;20030;-78
2022/11/18 07:41:41;;;;;;;4.20;3.28;;;7.80;99.90;;;;;;5014180;28;20029;-78
2022/11/18 07:44:10;;;;;;;5.50;2.30;;;7.80;99.90;;;;;;5013654;28;20034;-78
2022/11/18 07:46:37;;;;;;;3.17;1.20;;;7.80;99.90;;;;;;5014149;28;20044;-78
2022/11/18 07:49:05;;;;;;;2.25;1.15;;;7.80;99.90;;;;;;5015137;28;20057;-78
2022/11/18 07:51:34;;;;;;;4.00;1.58;;;7.80;99.90;;;;;;5015275;28;20061;-77
2022/11/18 07:54:04;;;;;;;5.03;1.80;;;7.80;99.90;;;;;;5014886;28;20038;-76
2022/11/18 07:56:30;;;;;;;5.28;1.70;;;7.80;99.90;;;;;;4996076;28;20045;-76
2022/11/18 07:58:56;;;;;;;3.55;2.67;;;7.90;99.90;;;;;;4996229;28;20034;-76
2022/11/18 08:01:26;;;;;;;3.42;1.90;;;7.90;99.90;;;;;;4995898;28;20422;-76
2022/11/18 08:03:52;;;;;;;5.47;2.75;;;7.90;99.90;;;;;;5013833;28;20025;-76
2022/11/18 08:06:19;;;;;;;6.90;2.10;;;7.90;99.90;;;;;;5013158;28;20025;-76
2022/11/18 08:08:45;;;;;;;4.60;1.80;;;7.90;99.90;;;;;;4996355;28;20033;-76
2022/11/18 08:11:15;;;;;;;4.28;2.20;;;8.00;99.90;;;;;;5013393;28;20038;-77
2022/11/18 08:13:41;;;;;;;6.50;2.33;;;8.00;99.90;;;;;;4995785;28;20086;-76
2022/11/18 08:16:19;;;;;;;7.88;2.75;;;8.00;99.90;;;;;;4995863;28;20034;-76
2022/11/18 08:18:46;;;;;;;7.38;2.90;;;8.10;99.90;;;;;;5013899;28;20029;-76
2022/11/18 08:21:13;;;;;;;7.85;3.20;;;8.10;99.90;;;;;;4995506;28;20042;-77
2022/11/18 08:23:40;;;;;;;7.13;3.05;;;8.10;99.90;;;;;;4979706;28;20042;-76
2022/11/18 08:26:12;;;;;;;5.60;3.63;;;8.10;99.90;;;;;;5013438;28;20030;-76
2022/11/18 08:28:40;;;;;;;5.85;3.72;;;8.10;99.90;;;;;;5013401;28;20106;-76
2022/11/18 08:31:11;;;;;;;7.38;3.33;;;8.10;99.90;;;;;;5013326;28;20053;-77
2022/11/18 08:33:37;;;;;;;7.35;3.20;;;8.20;99.90;;;;;;5013745;28;20034;-76
2022/11/18 08:36:16;;;;;;;7.90;3.35;;;8.20;99.90;;;;;;4994804;28;20034;-76
2022/11/18 08:38:42;;;;;;;9.57;4.63;;;8.20;99.90;;;;;;4995871;28;20042;-78
2022/11/18 08:41:13;;;;;;;10.00;3.88;;;8.20;99.90;;;;;;5012827;28;20038;-77
2022/11/18 08:43:40;;;;;;;6.65;3.00;;;8.30;99.90;;;;;;4995916;28;20029;-76
2022/11/18 08:46:06;;;;;;;8.82;3.25;;;8.30;99.90;;;;;;5012414;28;20033;-77
2022/11/18 08:48:33;;;;;;;12.35;2.85;;;8.40;99.90;;;;;;5013829;28;20030;-76
2022/11/18 08:50:59;;;;;;;7.82;2.50;;;8.30;99.90;;;;;;5012722;28;20034;-75
2022/11/18 08:53:26;;;;;;;5.80;2.25;;;8.20;99.90;;;;;;5012237;28;20040;-75
2022/11/18 08:55:59;;;;;;;6.20;1.90;;;8.20;99.90;;;;;;4995423;28;20041;-76
2022/11/18 08:58:26;;;;;;;3.03;1.50;;;8.20;99.90;;;;;;4994939;28;20045;-75
2022/11/18 09:00:52;;;;;;;5.30;1.88;;;8.20;99.90;;;;;;5012766;28;20482;-75
2022/11/18 09:03:19;;;;;;;4.05;2.08;;;8.20;99.90;;;;;;5011994;28;20030;-76
2022/11/18 09:05:45;;;;;;;5.28;1.73;;;8.20;99.90;;;;;;5012535;28;20037;-76
2022/11/18 09:08:11;;;;;;;4.57;1.65;;;8.20;99.90;;;;;;5012067;28;20048;-76
2022/11/18 09:10:38;;;;;;;3.50;1.55;;;8.20;99.90;;;;;;4994756;28;20069;-75
2022/11/18 09:13:04;;;;;;;2.78;1.60;;;8.30;99.90;;;;;;5012456;28;20030;-75
2022/11/18 09:15:30;;;;;;;2.58;1.55;;;8.30;99.90;;;;;;4994608;28;20065;-75
2022/11/18 09:17:57;;;;;;;3.50;1.30;;;8.40;99.90;;;;;;4994955;28;20041;-75
2022/11/18 09:20:23;;;;;;;4.93;1.45;;;8.50;99.90;;;;;;5011272;28;20046;-77
2022/11/18 09:22:50;;;;;;;4.35;1.50;;;8.60;99.90;;;;;;5012479;28;20025;-76
2022/11/18 09:25:16;;;;;;;4.20;1.90;;;8.60;99.90;;;;;;4994411;28;20033;-76
2022/11/18 09:27:42;;;;;;;2.80;1.42;;;8.70;99.90;;;;;;5012436;28;20026;-76
2022/11/18 09:30:09;;;;;;;2.45;1.20;;;8.60;99.90;;;;;;4994153;28;20050;-77
2022/11/18 09:32:35;;;;;;;2.85;1.40;;;8.60;99.90;;;;;;5012610;28;20030;-76
2022/11/18 09:35:01;;;;;;;3.33;2.05;;;8.60;99.90;;;;;;5012261;28;20030;-76
2022/11/18 09:37:27;;;;;;;3.75;1.65;;;8.70;99.90;;;;;;4994183;28;20247;-76
2022/11/18 09:39:53;;;;;;;3.97;1.30;;;8.80;99.90;;;;;;4994315;28;20045;-77
2022/11/18 09:42:27;;;;;;;3.75;1.58;;;8.90;99.90;;;;;;5011930;28;20037;-76
2022/11/18 09:45:19;;;;;;;4.53;1.70;;;8.80;99.90;;;;;;5013296;28;20030;-76
2022/11/18 09:47:45;;;;;;;2.75;1.77;;;8.80;99.90;;;;;;4995502;28;20037;-77
2022/11/18 09:50:15;;;;;;;5.20;1.85;;;8.90;99.90;;;;;;5023136;28;20476;-77
2022/11/18 09:52:56;;;;;;;4.95;2.33;;;8.80;99.90;;;;;;5022954;28;20042;-76
2022/11/18 09:55:23;;;;;;;3.05;1.50;;;8.80;99.90;;;;;;4998562;28;20041;-77
2022/11/18 09:57:58;;;;;;;3.67;1.75;;;8.90;99.90;;;;;;5016282;28;20034;-77
2022/11/18 10:00:29;;;;;;;4.03;2.03;;;9.10;99.90;;;;;;4981689;28;20046;-77
2022/11/18 10:03:03;;;;;;;3.17;1.83;;;9.10;99.90;;;;;;4998241;28;20049;-77
2022/11/18 10:05:39;;;;;;;6.03;2.75;;;9.20;99.90;;;;;;5015522;28;20042;-77
2022/11/18 10:08:19;;;;;;;5.07;2.20;;;9.10;99.90;;;;;;5015760;28;20352;-77
2022/11/18 10:11:06;;;;;;;3.50;2.53;;;9.20;99.90;;;;;;4997897;28;20515;-77
2022/11/18 10:13:53;;;;;;;5.43;2.13;;;9.30;99.90;;;;;;4997629;28;20468;-77
2022/11/18 10:16:28;;;;;;;5.22;2.70;;;9.30;99.90;;;;;;5015294;28;20038;-78
2022/11/18 10:19:17;;;;;;;4.45;2.42;;;9.30;99.90;;;;;;5015586;28;20559;-77
2022/11/18 10:22:23;;;;;;;4.35;2.20;;;9.40;99.90;;;;;;5015466;28;20046;-77
2022/11/18 10:24:52;;;;;;;5.45;2.13;;;9.40;99.90;;;;;;4987053;28;20045;-77
2022/11/18 10:27:19;;;;;;;5.30;3.85;;;9.40;99.90;;;;;;5014632;28;20045;-77
2022/11/18 10:29:52;;;;;;;33.83;18.67;;;9.50;99.90;;;;;;4997560;28;20045;-77
2022/11/18 10:32:18;;;;;;;13.88;6.75;;;9.40;99.90;;;;;;5014758;28;20046;-77
2022/11/18 10:34:46;;;;;;;6.30;3.55;;;9.40;99.90;;;;;;5015211;28;20452;-76
2022/11/18 10:37:24;;;;;;;5.85;2.45;;;9.40;99.90;;;;;;5014556;28;20034;-78
2022/11/18 10:39:53;;;;;;;5.18;2.92;;;9.50;99.90;;;;;;5015305;28;20037;-76
2022/11/18 10:42:41;;;;;;;4.13;2.60;;;9.50;99.90;;;;;;4997096;28;20033;-77
2022/11/18 10:45:29;;;;;;;4.45;2.83;;;9.30;99.90;;;;;;4997440;28;20042;-76
2022/11/18 10:48:08;;;;;;;5.13;2.95;;;9.30;99.90;;;;;;5015081;28;20029;-77
2022/11/18 10:50:40;;;;;;;5.05;3.13;;;9.20;99.90;;;;;;5014452;28;20042;-76
2022/11/18 10:53:32;;;;;;;6.70;3.10;;;9.30;99.90;;;;;;4997161;28;20033;-77
2022/11/18 10:56:03;;;;;;;5.30;3.30;;;9.20;99.90;;;;;;5015114;28;20038;-77
2022/11/18 10:58:41;;;;;;;7.25;3.20;;;9.10;99.90;;;;;;5014368;28;20026;-76
2022/11/18 11:01:27;;;;;;;5.95;3.13;;;9.20;99.90;;;;;;5014926;28;20038;-76
2022/11/18 11:04:22;;;;;;;7.60;3.95;;;9.30;99.90;;;;;;4997190;28;20042;-77
2022/11/18 11:06:48;;;;;;;8.55;4.43;;;9.30;99.90;;;;;;4998973;28;20038;-77
2022/11/18 11:09:14;;;;;;;7.20;4.15;;;9.40;99.90;;;;;;5038232;28;20026;-81
2022/11/18 11:11:42;;;;;;;7.80;4.63;;;9.40;99.90;;;;;;5003033;28;20057;-77
2022/11/18 11:14:17;;;;;;;8.05;4.90;;;9.30;99.90;;;;;;5014938;28;20030;-77
2022/11/18 11:17:02;;;;;;;6.15;4.28;;;9.30;99.90;;;;;;5014937;28;20037;-77
2022/11/18 11:19:49;;;;;;;9.45;5.47;;;9.40;99.90;;;;;;4996004;28;20056;-77
2022/11/18 11:22:15;;;;;;;8.23;4.22;;;9.30;99.90;;;;;;5013789;28;20042;-77
2022/11/18 11:24:42;;;;;;;11.98;5.43;;;9.30;99.90;;;;;;5014033;28;20383;-76
2022/11/18 11:27:56;;;;;;;9.57;5.35;;;9.30;99.90;;;;;;5014271;28;20037;-75
2022/11/18 11:30:23;;;;;;;10.20;5.30;;;9.40;99.90;;;;;;4950264;28;20499;-76
2022/11/18 11:32:52;;;;;;;12.55;7.38;;;9.60;99.90;;;;;;4994389;28;20030;-75
2022/11/18 11:35:26;;;;;;;9.32;6.95;;;9.70;99.90;;;;;;4993538;28;20033;-81
2022/11/18 11:38:06;;;;;;;6.72;3.38;;;9.70;99.90;;;;;;4994321;28;20061;-76
2022/11/18 11:40:38;;;;;;;6.85;4.65;;;9.80;99.90;;;;;;4959843;28;20046;-76
2022/11/18 11:43:29;;;;;;;8.45;5.43;;;10.00;99.90;;;;;;4994196;28;20030;-76
2022/11/18 11:46:16;;;;;;;5.20;2.63;;;10.10;99.90;;;;;;4994465;28;20041;-75
2022/11/18 11:49:16;;;;;;;3.00;2.30;;;9.90;99.90;;;;;;4994026;28;20042;-77
2022/11/18 11:52:01;;;;;;;4.33;2.40;;;9.70;99.90;;;;;;4993985;28;20369;-77
2022/11/18 11:54:44;;;;;;;6.18;2.60;;;9.60;99.90;;;;;;4993689;28;20061;-77
2022/11/18 11:57:35;;;;;;;6.10;2.38;;;9.70;99.90;;;;;;4994190;28;20452;-77
2022/11/18 12:00:01;;;;;;;6.57;2.65;;;9.70;99.90;;;;;;4976780;28;20476;-77
2022/11/18 12:03:25;;;;;;;4.60;2.40;;;9.80;99.90;;;;;;4999750;28;20046;-77
2022/11/18 12:05:52;;;;;;;5.45;2.45;;;9.80;99.90;;;;;;4986991;28;20043;-77
2022/11/18 12:08:23;;;;;;;7.30;3.10;;;9.90;99.90;;;;;;4975671;28;20045;-77
2022/11/18 12:11:10;;;;;;;4.68;1.90;;;10.10;99.90;;;;;;4992684;28;20408;-77
2022/11/18 12:13:36;;;;;;;3.42;1.70;;;10.10;99.90;;;;;;4975501;28;20228;-76
2022/11/18 12:16:03;;;;;;;5.80;1.50;;;10.20;99.90;;;;;;4993645;28;20038;-76
2022/11/18 12:18:35;;;;;;;3.70;1.98;;;10.10;99.90;;;;;;4992852;28;20134;-77
2022/11/18 12:21:02;;;;;;;3.92;1.10;;;10.10;99.90;;;;;;4993580;28;20038;-76
2022/11/18 12:23:30;;;;;;;4.32;1.13;;;10.10;99.90;;;;;;4992995;28;20034;-76
2022/11/18 12:26:03;;;;;;;3.83;1.75;;;10.00;99.90;;;;;;4993359;28;20026;-76
2022/11/18 12:28:39;;;;;;;6.40;3.15;;;10.00;99.90;;;;;;4975514;28;20041;-77
2022/11/18 12:31:18;;;;;;;5.97;1.50;;;10.00;99.90;;;;;;5011460;28;20499;-77
2022/11/18 12:33:48;;;;;;;4.13;1.63;;;10.10;99.90;;;;;;4995518;28;20398;-77
2022/11/18 12:36:34;;;;;;;4.00;1.47;;;10.00;99.90;;;;;;5013200;28;20040;-76
2022/11/18 12:39:25;;;;;;;5.28;1.40;;;10.00;99.90;;;;;;5012885;28;20053;-78
2022/11/18 12:44:41;;;;;;;1.90;0.98;;;10.10;99.90;;;;;;5012235;28;20391;-77
2022/11/18 12:47:11;;;;;;;6.05;1.05;;;10.20;99.90;;;;;;5012677;28;20026;-77
2022/11/18 12:49:43;;;;;;;2.35;1.15;;;10.10;99.90;;;;;;5012526;28;20044;-77
2022/11/18 12:52:28;;;;;;;2.55;1.00;;;10.10;99.90;;;;;;5012969;28;20468;-76
2022/11/18 12:55:00;;;;;;;2.88;1.13;;;10.20;99.90;;;;;;5013350;28;20033;-76
2022/11/18 12:57:30;;;;;;;3.35;1.38;;;10.20;99.90;;;;;;4995060;28;20392;-77
2022/11/18 12:59:56;;;;;;;2.73;1.30;;;10.10;99.90;;;;;;5012389;28;20045;-77
2022/11/18 13:02:27;;;;;;;3.05;1.35;;;10.30;99.90;;;;;;5011802;28;20034;-78
2022/11/18 13:05:19;;;;;;;1.92;1.20;;;10.20;99.90;;;;;;5012563;28;20030;-77
2022/11/18 13:08:13;;;;;;;6.03;2.60;;;10.10;99.90;;;;;;5012935;28;20045;-79
2022/11/18 13:11:43;;;;;;;4.47;2.13;;;10.10;99.90;;;;;;5012299;28;20399;-80
2022/11/18 13:13:40;;;;;;;6.03;1.60;;;10.10;99.90;;;;;;5011783;28;20038;-77
2022/11/18 13:19:04;;;;;;;7.32;1.85;;;10.00;99.90;;;;;;5013363;28;20037;-78
2022/11/18 13:24:20;;;;;;;2.13;0.80;;;9.90;99.90;;;;;;5016442;28;20038;-76
2022/11/18 13:26:53;;;;;;;1.27;0.50;;;9.90;99.90;;;;;;5016572;28;20094;-77
2022/11/18 13:29:25;;;;;;;2.38;0.90;;;9.90;99.90;;;;;;5015898;28;20042;-77
2022/11/18 13:32:13;;;;;;;4.53;2.08;;;9.90;99.90;;;;;;5016364;28;20046;-76
2022/11/18 13:34:47;;;;;;;3.40;1.30;;;9.70;99.90;;;;;;5015856;28;20467;-78